Time;durP1;ratioP1;P1;durP2;ratioP2;P2;SDS_P1;SDS_P2;PMS_P1;PMS_P2;Temp;Humidity;BMP_temperature;BMP_pressure;BME280_temperature;BME280_humidity;BME280_pressure;Samples;Min_cycle;Max_cycle;Signal;HPM_P1;HPM_P2
2023/03/04 00:01:15;;;;;;;12.70;3.53;;;;;;;6.99;57.84;102549.38;5009566;28;20037;-59
2023/03/04 00:03:41;;;;;;;19.80;4.85;;;;;;;6.99;57.50;102543.88;5014349;28;20049;-59
2023/03/04 00:06:07;;;;;;;19.42;4.13;;;;;;;6.99;57.92;102549.38;5024323;28;20121;-59
2023/03/04 00:08:32;;;;;;;20.23;3.88;;;;;;;6.99;57.56;102563.19;5025072;28;20075;-59
2023/03/04 00:10:58;;;;;;;20.30;4.38;;;;;;;6.97;58.31;102557.88;5022738;28;20041;-57
2023/03/04 00:13:23;;;;;;;27.35;4.53;;;;;;;6.99;58.35;102547.47;5024007;28;20040;-57
2023/03/04 00:15:49;;;;;;;15.15;4.15;;;;;;;7.00;57.42;102551.13;5029076;28;20033;-59
2023/03/04 00:18:15;;;;;;;16.30;3.90;;;;;;;7.01;58.32;102548.16;5021837;28;20083;-58
2023/03/04 00:20:40;;;;;;;23.05;5.00;;;;;;;7.01;58.01;102553.69;5025313;28;20486;-58
2023/03/04 00:23:05;;;;;;;20.90;4.97;;;;;;;7.01;58.20;102548.16;5029713;28;20038;-58
2023/03/04 00:25:32;;;;;;;18.98;4.55;;;;;;;6.99;58.31;102541.09;5028572;28;20486;-58
2023/03/04 00:27:58;;;;;;;18.33;4.40;;;;;;;6.97;58.23;102541.31;5025372;28;20492;-59
2023/03/04 00:30:23;;;;;;;14.10;4.50;;;;;;;7.00;58.49;102540.94;5022804;28;20043;-59
2023/03/04 00:32:48;;;;;;;19.60;4.53;;;;;;;7.01;58.23;102542.63;5027606;28;20025;-58
2023/03/04 00:35:14;;;;;;;15.82;4.22;;;;;;;6.99;58.51;102541.97;5030320;28;20072;-59
2023/03/04 00:37:39;;;;;;;18.90;4.10;;;;;;;7.03;58.26;102537.78;5030473;28;20036;-58
2023/03/04 00:40:06;;;;;;;18.38;4.28;;;;;;;7.04;58.36;102536.75;5028910;28;20055;-59
2023/03/04 00:42:31;;;;;;;17.02;4.30;;;;;;;7.04;57.86;102541.41;5028661;28;20033;-59
2023/03/04 00:44:56;;;;;;;18.98;3.63;;;;;;;7.04;58.03;102536.75;5029908;28;20519;-59
2023/03/04 00:47:21;;;;;;;22.33;4.03;;;;;;;7.04;58.17;102534.00;5024529;28;20099;-58
2023/03/04 00:49:47;;;;;;;12.65;3.17;;;;;;;7.04;58.54;102530.38;5029669;28;20029;-58
2023/03/04 00:52:12;;;;;;;21.35;4.35;;;;;;;7.04;58.21;102538.66;5028133;28;20404;-58
2023/03/04 00:54:37;;;;;;;20.65;4.05;;;;;;;7.04;57.91;102534.00;5029531;28;20044;-58
2023/03/04 00:57:02;;;;;;;15.50;3.72;;;;;;;7.03;58.33;102539.69;5030013;28;20092;-58
2023/03/04 00:59:28;;;;;;;18.58;4.07;;;;;;;7.01;58.61;102542.63;5029440;28;20112;-58
2023/03/04 01:01:53;;;;;;;23.25;3.67;;;;;;;7.03;58.78;102545.19;5025270;28;20051;-58
2023/03/04 01:04:18;;;;;;;19.75;3.80;;;;;;;7.04;57.99;102536.75;5024039;28;20057;-58
2023/03/04 01:06:44;;;;;;;18.83;4.05;;;;;;;7.04;58.68;102549.69;5029516;28;20116;-58
2023/03/04 01:09:09;;;;;;;14.13;3.47;;;;;;;7.01;58.78;102552.84;5029141;28;20416;-58
2023/03/04 01:11:34;;;;;;;14.88;3.25;;;;;;;7.01;58.33;102542.63;5029878;28;20026;-59
2023/03/04 01:14:00;;;;;;;13.35;3.67;;;;;;;7.04;58.75;102542.28;5027999;28;20076;-58
2023/03/04 01:16:25;;;;;;;22.50;4.78;;;;;;;7.00;58.33;102546.47;5029751;28;20041;-58
2023/03/04 01:18:50;;;;;;;17.27;4.60;;;;;;;7.00;59.32;102543.69;5026690;28;20473;-59
2023/03/04 01:21:16;;;;;;;20.20;3.67;;;;;;;7.00;59.02;102546.47;5016519;28;20069;-59
2023/03/04 01:23:41;;;;;;;25.08;4.88;;;;;;;7.01;58.58;102536.28;5015737;28;20061;-59
2023/03/04 01:26:06;;;;;;;22.23;4.15;;;;;;;7.00;58.29;102538.19;5028157;28;20492;-58
2023/03/04 01:28:34;;;;;;;13.10;3.35;;;;;;;7.04;57.71;102545.03;5029217;28;20069;-58
2023/03/04 01:31:03;;;;;;;17.75;3.45;;;;;;;7.03;58.82;102545.19;5029352;28;20033;-59
2023/03/04 01:33:29;;;;;;;16.63;3.15;;;;;;;7.06;57.60;102542.94;5028892;28;20022;-58
2023/03/04 01:35:54;;;;;;;16.48;3.13;;;;;;;7.06;57.83;102539.31;5026333;28;20112;-58
2023/03/04 01:38:19;;;;;;;11.52;3.03;;;;;;;7.06;58.19;102540.16;5028801;28;20600;-58
2023/03/04 01:40:45;;;;;;;15.55;3.30;;;;;;;7.05;58.20;102534.84;5033416;28;20041;-58
2023/03/04 01:43:18;;;;;;;14.27;3.40;;;;;;;7.06;58.26;102534.63;5032855;28;20021;-58
2023/03/04 01:45:44;;;;;;;13.63;2.97;;;;;;;7.06;57.55;102529.13;5031788;28;20041;-58
2023/03/04 01:48:14;;;;;;;19.15;3.00;;;;;;;7.06;57.74;102531.03;5033000;28;20052;-58
2023/03/04 01:50:39;;;;;;;14.95;2.75;;;;;;;7.10;57.62;102524.94;5020184;28;20116;-59
2023/03/04 01:53:05;;;;;;;16.65;3.08;;;;;;;7.09;57.97;102523.22;5033056;28;20144;-58
2023/03/04 01:55:31;;;;;;;16.65;2.97;;;;;;;7.08;58.24;102507.72;5025996;28;20026;-59
2023/03/04 01:57:56;;;;;;;18.27;3.75;;;;;;;7.07;57.91;102507.88;5032549;28;20056;-59
2023/03/04 02:00:31;;;;;;;18.67;3.35;;;;;;;7.08;58.59;102504.09;5033363;28;20037;-59
2023/03/04 02:03:00;;;;;;;22.08;3.05;;;;;;;7.07;58.38;102507.88;5030960;28;20552;-59
2023/03/04 02:05:26;;;;;;;16.10;3.50;;;;;;;7.03;57.94;102503.78;5030448;28;20041;-59
2023/03/04 02:07:54;;;;;;;14.73;2.67;;;;;;;7.07;58.84;102499.59;5029789;28;20025;-59
2023/03/04 02:10:20;;;;;;;16.88;2.70;;;;;;;7.06;58.40;102495.97;5031094;28;20075;-59
2023/03/04 02:12:45;;;;;;;14.20;3.05;;;;;;;7.03;58.61;102506.53;5030302;28;20057;-59
2023/03/04 02:15:11;;;;;;;13.85;2.83;;;;;;;7.04;58.59;102500.00;5031539;28;20041;-58
2023/03/04 02:17:36;;;;;;;14.73;2.97;;;;;;;7.06;58.03;102495.13;5031736;28;20029;-59
2023/03/04 02:20:10;;;;;;;14.57;2.72;;;;;;;7.05;58.41;102497.03;5032251;28;20124;-58
2023/03/04 02:22:42;;;;;;;11.85;2.88;;;;;;;7.01;59.31;102492.94;5033025;28;20040;-59
2023/03/04 02:25:12;;;;;;;12.80;2.65;;;;;;;7.04;58.58;102494.47;5030649;28;20036;-58
2023/03/04 02:27:37;;;;;;;17.38;2.97;;;;;;;7.05;58.69;102491.53;5031089;28;20022;-59
2023/03/04 02:30:02;;;;;;;15.40;2.85;;;;;;;7.02;59.11;102486.38;5032213;28;20120;-58
2023/03/04 02:32:28;;;;;;;16.75;3.20;;;;;;;7.03;59.04;102489.97;5030293;28;20083;-58
2023/03/04 02:34:55;;;;;;;20.73;2.88;;;;;;;7.01;58.25;102484.66;5033001;28;20030;-59
2023/03/04 02:37:20;;;;;;;12.77;2.88;;;;;;;7.03;58.89;102482.56;5032824;28;20025;-59
2023/03/04 02:39:48;;;;;;;14.40;2.70;;;;;;;7.05;58.44;102490.66;5028249;28;20083;-59
2023/03/04 02:42:14;;;;;;;11.70;2.65;;;;;;;7.03;58.63;102490.84;5030517;28;20759;-58
2023/03/04 02:44:45;;;;;;;9.98;2.78;;;;;;;7.06;58.31;102481.31;5032000;28;20083;-59
2023/03/04 02:47:12;;;;;;;20.20;3.13;;;;;;;7.03;58.27;102482.56;5028347;28;20033;-59
2023/03/04 02:49:40;;;;;;;12.60;2.78;;;;;;;7.00;58.61;102477.44;5035747;28;20033;-59
2023/03/04 02:52:19;;;;;;;13.68;2.80;;;;;;;7.03;58.92;102474.28;5026231;28;20064;-59
2023/03/04 02:54:44;;;;;;;11.45;2.97;;;;;;;7.01;58.94;102473.63;5030989;28;20025;-59
2023/03/04 02:57:11;;;;;;;13.30;2.38;;;;;;;6.99;58.55;102470.19;5030595;28;20071;-59
2023/03/04 02:59:38;;;;;;;11.13;2.28;;;;;;;7.01;58.60;102470.00;5031575;28;20072;-59
2023/03/04 03:02:04;;;;;;;14.10;2.67;;;;;;;7.02;58.28;102468.94;5031537;28;20440;-59
2023/03/04 03:04:30;;;;;;;17.63;2.92;;;;;;;7.02;59.03;102464.28;5028847;28;20033;-59
2023/03/04 03:06:55;;;;;;;18.30;2.67;;;;;;;7.04;58.34;102464.13;5031292;28;20029;-59
2023/03/04 03:09:21;;;;;;;15.40;2.80;;;;;;;6.99;58.83;102464.66;5028905;28;20132;-59
2023/03/04 03:11:46;;;;;;;12.80;2.72;;;;;;;6.98;58.96;102457.44;5026958;28;21966;-59
2023/03/04 03:14:12;;;;;;;12.77;2.83;;;;;;;6.99;59.17;102461.91;5028507;28;20033;-59
2023/03/04 03:16:37;;;;;;;13.23;2.72;;;;;;;6.98;59.54;102465.72;5030205;28;20021;-59
2023/03/04 03:19:02;;;;;;;20.05;3.05;;;;;;;6.99;59.31;102459.13;5028107;28;20490;-59
2023/03/04 03:21:28;;;;;;;8.95;2.63;;;;;;;6.97;59.38;102464.00;5028486;28;20469;-59
2023/03/04 03:23:53;;;;;;;9.52;2.53;;;;;;;6.97;59.40;102460.41;5040514;28;20953;-59
2023/03/04 03:26:18;;;;;;;14.13;3.05;;;;;;;7.01;59.00;102464.50;5032208;28;20123;-59
2023/03/04 03:28:44;;;;;;;14.70;2.88;;;;;;;7.00;59.56;102458.13;5029225;28;20052;-59
2023/03/04 03:31:09;;;;;;;14.20;2.63;;;;;;;7.00;59.18;102455.34;5030907;28;20061;-59
2023/03/04 03:33:35;;;;;;;12.13;2.80;;;;;;;6.99;59.62;102452.75;5031696;28;20083;-59
2023/03/04 03:36:00;;;;;;;14.65;3.03;;;;;;;6.99;59.50;102450.00;5029159;28;20032;-58
2023/03/04 03:38:26;;;;;;;12.35;3.13;;;;;;;7.00;59.68;102454.50;5030961;28;20032;-59
2023/03/04 03:40:52;;;;;;;14.93;2.58;;;;;;;6.98;59.36;102449.16;5026506;28;20029;-59
2023/03/04 03:43:18;;;;;;;11.50;2.72;;;;;;;7.00;59.53;102444.31;5031085;28;20028;-59
2023/03/04 03:45:43;;;;;;;12.55;2.85;;;;;;;7.01;59.15;102447.91;5031314;28;20394;-59
2023/03/04 03:48:08;;;;;;;11.07;2.75;;;;;;;7.01;59.52;102454.28;5030824;28;20037;-59
2023/03/04 03:50:34;;;;;;;11.13;2.88;;;;;;;7.01;59.11;102454.28;5027824;28;20108;-58
2023/03/04 03:52:59;;;;;;;11.32;3.10;;;;;;;7.00;59.18;102452.59;5030905;28;20075;-58
2023/03/04 03:55:24;;;;;;;14.18;3.25;;;;;;;7.00;59.87;102451.75;5030001;28;20029;-58
2023/03/04 03:57:50;;;;;;;15.57;3.00;;;;;;;6.99;59.31;102450.84;5016814;28;20056;-58
2023/03/04 04:00:16;;;;;;;14.05;2.97;;;;;;;6.95;59.96;102452.28;5016169;28;20122;-59
2023/03/04 04:02:41;;;;;;;11.00;2.85;;;;;;;6.95;59.68;102451.44;5028534;28;20056;-59
2023/03/04 04:05:08;;;;;;;17.95;3.20;;;;;;;6.95;60.29;102452.28;5029054;28;20059;-59
2023/03/04 04:07:34;;;;;;;12.88;3.03;;;;;;;6.97;59.35;102449.34;5030997;28;20022;-59
2023/03/04 04:10:00;;;;;;;11.73;2.63;;;;;;;6.95;59.46;102455.03;5030510;28;20063;-59
2023/03/04 04:12:25;;;;;;;10.68;2.55;;;;;;;6.95;59.30;102451.44;5030941;28;20061;-59
2023/03/04 04:14:50;;;;;;;14.13;2.83;;;;;;;6.94;59.24;102453.34;5020324;28;20374;-59
2023/03/04 04:17:16;;;;;;;13.30;2.55;;;;;;;6.97;58.58;102458.47;5032215;28;20029;-59
2023/03/04 04:19:41;;;;;;;13.60;2.35;;;;;;;6.96;58.62;102455.94;5028604;28;20033;-59
2023/03/04 04:22:12;;;;;;;17.02;2.83;;;;;;;6.95;58.82;102452.28;5028090;28;20144;-59
2023/03/04 04:24:37;;;;;;;11.93;2.85;;;;;;;6.95;58.87;102455.03;5030526;28;20104;-59
2023/03/04 04:27:03;;;;;;;13.20;2.88;;;;;;;6.93;58.03;102448.88;5030919;28;20096;-59
2023/03/04 04:29:28;;;;;;;14.18;2.78;;;;;;;6.94;58.36;102450.56;5031103;28;20091;-59
2023/03/04 04:31:54;;;;;;;10.20;2.35;;;;;;;6.92;57.95;102455.44;5019326;28;20091;-58
2023/03/04 04:34:19;;;;;;;10.02;2.22;;;;;;;6.94;58.00;102453.34;5010945;28;20121;-59
2023/03/04 04:36:44;;;;;;;13.30;2.90;;;;;;;6.94;58.57;102449.72;5022755;28;20095;-58
2023/03/04 04:39:10;;;;;;;13.27;2.67;;;;;;;6.94;58.82;102463.53;5030026;28;20061;-58
2023/03/04 04:41:39;;;;;;;14.27;2.70;;;;;;;6.87;58.02;102455.13;5029773;28;20498;-59
2023/03/04 04:44:04;;;;;;;12.93;2.58;;;;;;;6.87;58.55;102455.13;5028248;28;20026;-58
2023/03/04 04:46:30;;;;;;;11.95;2.65;;;;;;;6.88;58.95;102456.88;5027756;28;20584;-59
2023/03/04 04:48:55;;;;;;;9.57;2.50;;;;;;;6.88;58.53;102466.00;5023640;28;20034;-58
2023/03/04 04:51:20;;;;;;;15.20;2.80;;;;;;;6.89;58.66;102461.34;5027867;28;20029;-58
2023/03/04 04:53:47;;;;;;;12.40;3.65;;;;;;;6.90;58.88;102468.56;5024825;28;20061;-58
2023/03/04 04:56:16;;;;;;;16.83;2.92;;;;;;;6.86;58.77;102468.09;5021681;28;20116;-58
2023/03/04 04:58:43;;;;;;;9.52;3.00;;;;;;;6.87;59.09;102468.94;5015058;28;20036;-58
2023/03/04 05:01:09;;;;;;;13.60;4.20;;;;;;;6.87;58.76;102468.94;5028296;28;20049;-58
2023/03/04 05:03:36;;;;;;;13.13;3.55;;;;;;;6.87;58.70;102463.41;5027767;28;20029;-58
2023/03/04 05:06:03;;;;;;;15.50;3.00;;;;;;;6.90;58.78;102463.03;5023733;28;20773;-58
2023/03/04 05:08:28;;;;;;;8.90;2.30;;;;;;;6.89;58.75;102462.19;5019743;28;20029;-59
2023/03/04 05:10:54;;;;;;;11.30;2.35;;;;;;;6.91;58.79;102459.22;5022083;28;20481;-58
2023/03/04 05:13:19;;;;;;;11.98;2.38;;;;;;;6.94;57.99;102458.84;5013352;28;20491;-59
2023/03/04 05:15:45;;;;;;;13.55;3.05;;;;;;;6.94;58.20;102458.84;5029790;28;20469;-59
2023/03/04 05:18:11;;;;;;;11.45;2.20;;;;;;;6.97;58.72;102458.47;5030045;28;20029;-59
2023/03/04 05:20:36;;;;;;;10.80;2.45;;;;;;;6.98;58.79;102462.09;5029175;28;20382;-59
2023/03/04 05:23:01;;;;;;;11.43;2.78;;;;;;;6.96;58.98;102458.69;5029969;28;20176;-59
2023/03/04 05:25:27;;;;;;;15.48;2.60;;;;;;;6.97;58.24;102457.63;5028153;28;20061;-59
2023/03/04 05:27:52;;;;;;;9.25;2.13;;;;;;;6.95;58.58;102452.28;5028111;28;20030;-59
2023/03/04 05:30:18;;;;;;;13.10;2.42;;;;;;;6.94;58.40;102450.56;5024082;28;20030;-59
2023/03/04 05:32:43;;;;;;;20.38;3.35;;;;;;;6.94;58.51;102452.47;5029679;28;20428;-59
2023/03/04 05:35:08;;;;;;;12.27;2.42;;;;;;;6.92;58.31;102451.81;5025954;28;20401;-59
2023/03/04 05:37:34;;;;;;;8.15;2.13;;;;;;;6.93;58.29;102461.81;5028442;28;20156;-59
2023/03/04 05:39:59;;;;;;;13.32;2.47;;;;;;;6.90;58.86;102457.53;5029060;28;20045;-59
2023/03/04 05:42:24;;;;;;;14.85;2.95;;;;;;;6.87;58.88;102463.41;5027725;28;20032;-59
2023/03/04 05:44:49;;;;;;;14.60;2.88;;;;;;;6.86;58.21;102467.22;5028272;28;20084;-59
2023/03/04 05:47:15;;;;;;;17.23;2.70;;;;;;;6.87;58.42;102464.28;5025235;28;20029;-59
2023/03/04 05:49:40;;;;;;;11.93;2.70;;;;;;;6.92;57.90;102460.09;5029051;28;20436;-59
2023/03/04 05:52:07;;;;;;;11.65;2.38;;;;;;;6.91;58.72;102464.75;5029073;28;20128;-59
2023/03/04 05:54:32;;;;;;;12.13;2.90;;;;;;;6.91;58.29;102470.28;5029650;28;20100;-59
2023/03/04 05:56:57;;;;;;;10.13;2.25;;;;;;;6.93;58.31;102472.88;5026372;28;20108;-59
2023/03/04 05:59:23;;;;;;;11.45;2.15;;;;;;;6.91;58.74;102475.78;5027866;28;20551;-59
2023/03/04 06:01:48;;;;;;;6.95;2.08;;;;;;;6.86;58.72;102468.09;5016307;28;20040;-59
2023/03/04 06:04:13;;;;;;;8.85;2.42;;;;;;;6.89;58.80;102469.63;5010386;28;20038;-59
2023/03/04 06:06:39;;;;;;;9.23;2.40;;;;;;;6.89;58.55;102473.22;5027097;28;20099;-59
2023/03/04 06:09:04;;;;;;;13.80;2.45;;;;;;;6.89;58.75;102472.38;5009376;28;20029;-59
2023/03/04 06:11:29;;;;;;;8.00;2.08;;;;;;;6.91;59.45;102481.31;5016516;28;20033;-59
2023/03/04 06:13:55;;;;;;;12.77;2.00;;;;;;;6.92;59.59;102472.00;5028121;28;20424;-59
2023/03/04 06:16:20;;;;;;;8.85;2.30;;;;;;;6.91;59.30;102470.28;5026217;28;20556;-59
2023/03/04 06:18:45;;;;;;;9.35;2.20;;;;;;;6.92;59.59;102472.00;5024390;28;20112;-59
2023/03/04 06:21:11;;;;;;;10.88;2.35;;;;;;;6.89;59.17;102478.75;5029494;28;20029;-59
2023/03/04 06:23:36;;;;;;;18.60;2.30;;;;;;;6.90;59.25;102482.38;5030145;28;20427;-59
2023/03/04 06:26:02;;;;;;;13.40;2.42;;;;;;;6.87;59.82;102474.47;5030071;28;20056;-59
2023/03/04 06:28:28;;;;;;;7.70;2.55;;;;;;;6.88;60.30;102481.72;5031048;28;20400;-59
2023/03/04 06:30:55;;;;;;;12.50;3.10;;;;;;;6.87;59.95;102475.31;5031225;28;20053;-59
2023/03/04 06:33:21;;;;;;;9.98;2.40;;;;;;;6.85;59.98;102485.69;5031876;28;20134;-59
2023/03/04 06:35:47;;;;;;;9.52;1.88;;;;;;;6.87;60.64;102483.59;5029362;28;20428;-59
2023/03/04 06:38:12;;;;;;;9.70;2.47;;;;;;;6.88;60.55;102479.81;5029669;28;20034;-59
2023/03/04 06:40:38;;;;;;;9.82;2.55;;;;;;;6.88;60.81;102485.34;5032547;28;20026;-59
2023/03/04 06:43:03;;;;;;;13.30;2.85;;;;;;;6.86;61.42;102486.56;5032923;28;20866;-59
2023/03/04 06:45:29;;;;;;;8.00;2.40;;;;;;;6.89;60.89;102486.19;5030633;28;20049;-59
2023/03/04 06:47:54;;;;;;;7.80;2.17;;;;;;;6.87;61.72;102491.03;5028515;28;20449;-59
2023/03/04 06:50:19;;;;;;;14.93;2.88;;;;;;;6.87;61.61;102491.88;5026656;28;20040;-59
2023/03/04 06:52:45;;;;;;;8.73;2.50;;;;;;;6.85;61.72;102495.88;5027764;28;20158;-59
2023/03/04 06:55:11;;;;;;;10.45;2.20;;;;;;;6.87;61.98;102491.03;5041004;28;20025;-59
2023/03/04 06:57:37;;;;;;;8.20;2.45;;;;;;;6.84;61.71;102497.78;5032411;28;20029;-59
2023/03/04 07:00:04;;;;;;;8.80;2.50;;;;;;;6.84;61.80;102500.56;5031649;28;20743;-60
2023/03/04 07:02:29;;;;;;;11.68;2.10;;;;;;;6.83;61.69;102500.72;5031834;28;20021;-60
2023/03/04 07:04:55;;;;;;;11.23;2.67;;;;;;;6.85;61.98;102506.94;5029760;28;20029;-59
2023/03/04 07:07:20;;;;;;;8.77;2.17;;;;;;;6.84;62.07;102506.06;5030006;28;20029;-59
2023/03/04 07:09:45;;;;;;;7.45;1.92;;;;;;;6.85;62.33;102504.16;5024433;28;20481;-58
2023/03/04 07:12:11;;;;;;;7.95;2.63;;;;;;;6.83;63.00;102500.72;5029464;28;20021;-58
2023/03/04 07:14:36;;;;;;;8.25;2.22;;;;;;;6.83;63.08;102495.19;5031181;28;20468;-58
2023/03/04 07:17:01;;;;;;;9.77;2.45;;;;;;;6.81;63.29;102503.69;5032436;28;20041;-59
2023/03/04 07:19:27;;;;;;;10.85;2.58;;;;;;;6.76;63.08;102503.41;5022556;28;20033;-58
2023/03/04 07:21:52;;;;;;;10.48;2.70;;;;;;;6.80;63.97;102513.00;5025111;28;20287;-58
2023/03/04 07:24:18;;;;;;;7.75;2.40;;;;;;;6.82;63.78;102504.53;5031608;28;20116;-58
2023/03/04 07:26:43;;;;;;;9.02;2.38;;;;;;;6.83;63.46;102509.84;5030233;28;20029;-59
2023/03/04 07:29:08;;;;;;;12.15;2.40;;;;;;;6.83;63.61;102511.75;5026612;28;20401;-60
2023/03/04 07:31:35;;;;;;;10.77;2.85;;;;;;;6.83;63.61;102514.53;5028358;28;20104;-59
2023/03/04 07:34:03;;;;;;;8.05;2.60;;;;;;;6.84;63.75;102519.03;5026836;28;20116;-59
2023/03/04 07:36:29;;;;;;;7.85;2.50;;;;;;;6.85;64.11;102521.59;5024810;28;20135;-59
2023/03/04 07:38:55;;;;;;;13.57;2.88;;;;;;;6.83;63.46;102525.56;5021864;28;20061;-60
2023/03/04 07:41:23;;;;;;;8.18;2.65;;;;;;;6.86;63.96;102530.72;5021310;28;20109;-58
2023/03/04 07:43:48;;;;;;;9.73;2.70;;;;;;;6.87;63.51;102525.00;5022787;28;20752;-58
2023/03/04 07:46:14;;;;;;;8.55;2.53;;;;;;;6.88;63.94;102532.25;5027394;28;20064;-61
2023/03/04 07:48:39;;;;;;;10.77;2.47;;;;;;;6.88;64.23;102528.63;5026410;28;20029;-59
2023/03/04 07:51:10;;;;;;;14.98;3.10;;;;;;;6.86;63.37;102533.47;5023395;28;20057;-59
2023/03/04 07:53:36;;;;;;;9.50;2.90;;;;;;;6.89;64.02;102531.19;5026025;28;20370;-58
2023/03/04 07:56:03;;;;;;;8.43;3.22;;;;;;;6.92;64.05;102534.63;5021628;28;20040;-58
2023/03/04 07:58:28;;;;;;;9.48;2.90;;;;;;;6.94;64.29;102538.91;5021442;28;20029;-58
2023/03/04 08:00:53;;;;;;;9.13;3.28;;;;;;;6.97;64.06;102535.78;5017952;28;20512;-59
2023/03/04 08:03:19;;;;;;;7.13;2.80;;;;;;;6.97;63.71;102540.44;5024663;28;20029;-58
2023/03/04 08:05:44;;;;;;;12.68;2.95;;;;;;;6.99;63.84;102538.34;5024593;28;20024;-59
2023/03/04 08:08:09;;;;;;;8.88;3.53;;;;;;;6.97;63.94;102541.31;5023124;28;20037;-60
2023/03/04 08:10:35;;;;;;;9.85;3.10;;;;;;;6.99;64.42;102536.44;5012734;28;20045;-60
2023/03/04 08:13:00;;;;;;;8.13;2.88;;;;;;;6.99;63.84;102544.72;5030689;28;20056;-60
2023/03/04 08:15:26;;;;;;;11.15;3.22;;;;;;;6.98;64.50;102540.25;5020650;28;20120;-61
2023/03/04 08:17:52;;;;;;;10.05;3.50;;;;;;;6.98;63.96;102540.25;5026595;28;20443;-60
2023/03/04 08:20:17;;;;;;;11.52;3.13;;;;;;;7.00;64.70;102542.84;5010709;28;20088;-61
2023/03/04 08:22:43;;;;;;;14.43;3.65;;;;;;;7.03;65.53;102539.69;5018687;28;20029;-59
2023/03/04 08:25:08;;;;;;;11.25;3.00;;;;;;;7.04;63.85;102536.75;5030438;28;20379;-60
2023/03/04 08:27:33;;;;;;;13.95;3.25;;;;;;;7.06;64.91;102547.59;5026883;28;20030;-61
2023/03/04 08:30:05;;;;;;;11.20;3.40;;;;;;;7.08;64.93;102543.59;5026236;28;20131;-61
2023/03/04 08:32:30;;;;;;;8.77;3.22;;;;;;;7.06;64.72;102542.94;5027139;28;20037;-60
2023/03/04 08:34:56;;;;;;;10.50;3.20;;;;;;;7.05;64.93;102538.47;5026434;28;20045;-60
2023/03/04 08:37:22;;;;;;;12.13;3.03;;;;;;;7.09;65.02;102545.31;5017870;28;20496;-60
2023/03/04 08:39:47;;;;;;;15.55;2.83;;;;;;;7.11;65.36;102542.34;5023914;28;20072;-59
2023/03/04 08:42:12;;;;;;;11.57;2.95;;;;;;;7.12;65.17;102541.34;5029768;28;20029;-60
2023/03/04 08:44:37;;;;;;;9.00;2.72;;;;;;;7.14;64.42;102551.13;5027464;28;20046;-61
2023/03/04 08:47:03;;;;;;;9.82;2.88;;;;;;;7.20;65.16;102546.75;5029512;28;20542;-60
2023/03/04 08:49:28;;;;;;;7.60;2.72;;;;;;;7.24;64.71;102547.25;5029651;28;20029;-60
2023/03/04 08:51:53;;;;;;;7.82;2.85;;;;;;;7.28;65.14;102543.91;5027922;28;20084;-60
2023/03/04 08:54:18;;;;;;;11.48;3.30;;;;;;;7.35;64.84;102544.88;5027579;28;20430;-60
2023/03/04 08:56:44;;;;;;;10.02;2.95;;;;;;;7.44;64.99;102544.75;5023445;28;20078;-59
2023/03/04 08:59:09;;;;;;;9.95;3.60;;;;;;;7.49;64.40;102542.28;5028841;28;20033;-60
2023/03/04 09:01:35;;;;;;;11.10;3.20;;;;;;;7.55;64.35;102538.75;5029229;28;20037;-59
2023/03/04 09:04:00;;;;;;;8.07;3.17;;;;;;;7.60;63.81;102545.41;5026397;28;20056;-59
2023/03/04 09:06:25;;;;;;;6.22;2.65;;;;;;;7.66;63.55;102545.69;5014617;28;20025;-59
2023/03/04 09:08:50;;;;;;;15.48;5.18;;;;;;;7.72;63.60;102536.63;5028134;28;20429;-59
2023/03/04 09:11:16;;;;;;;8.82;3.95;;;;;;;7.78;63.44;102539.50;5029401;28;20393;-59
2023/03/04 09:13:41;;;;;;;10.45;3.90;;;;;;;7.80;63.04;102539.28;5028295;28;20044;-59
2023/03/04 09:16:12;;;;;;;6.85;2.60;;;;;;;7.79;62.31;102538.44;5029431;28;20025;-60
2023/03/04 09:18:39;;;;;;;11.23;2.38;;;;;;;7.79;62.50;102532.06;5028983;28;20433;-59
2023/03/04 09:21:07;;;;;;;6.45;2.72;;;;;;;7.77;62.37;102531.38;5028580;28;20033;-60
2023/03/04 09:23:33;;;;;;;8.55;2.50;;;;;;;7.78;62.99;102524.78;5025163;28;20029;-60
2023/03/04 09:25:58;;;;;;;6.30;3.10;;;;;;;7.84;62.43;102516.59;5048360;28;20017;-58
2023/03/04 09:28:23;;;;;;;11.40;2.70;;;;;;;7.90;62.51;102526.03;5049457;28;20029;-59
2023/03/04 09:30:49;;;;;;;14.65;3.10;;;;;;;7.91;62.91;102521.34;5048874;28;20040;-60
2023/03/04 09:33:14;;;;;;;11.20;2.83;;;;;;;7.93;63.03;102519.22;5048602;28;20025;-60
2023/03/04 09:35:39;;;;;;;7.93;2.50;;;;;;;7.92;62.24;102521.16;5048865;28;20025;-59
2023/03/04 09:38:05;;;;;;;5.10;2.50;;;;;;;7.97;62.69;102512.25;5033069;28;20033;-59
2023/03/04 09:40:46;;;;;;;6.95;2.00;;;;;;;8.00;62.81;102512.72;5025191;28;20477;-59
2023/03/04 09:43:28;;;;;;;5.50;2.40;;;;;;;7.99;63.02;102513.78;5009701;28;20758;-60
2023/03/04 09:46:00;;;;;;;7.80;2.35;;;;;;;8.06;62.20;102519.41;5008972;28;20056;-60
2023/03/04 09:48:28;;;;;;;8.10;2.53;;;;;;;8.08;61.97;102509.84;5009011;28;20034;-60
2023/03/04 09:51:18;;;;;;;8.85;2.65;;;;;;;8.08;62.45;102512.59;5008955;28;20457;-59
2023/03/04 09:54:05;;;;;;;8.90;2.53;;;;;;;8.08;62.91;102509.84;5011589;28;20035;-59
2023/03/04 09:56:35;;;;;;;7.72;1.90;;;;;;;8.09;62.02;102517.06;5029098;28;20488;-60
2023/03/04 09:59:16;;;;;;;6.70;2.60;;;;;;;8.11;62.18;102514.97;5027843;28;20036;-59
2023/03/04 10:01:52;;;;;;;3.47;1.90;;;;;;;8.12;62.60;102516.69;5032152;28;20030;-59
2023/03/04 10:04:45;;;;;;;5.18;1.95;;;;;;;8.13;62.03;102523.06;5033052;28;20053;-59
2023/03/04 10:07:19;;;;;;;;;;;;;;;8.22;61.73;102512.75;5033052;28;20026;-59
2023/03/04 10:09:56;;;;;;;6.63;2.50;;;;;;;8.11;61.98;102512.22;5031714;28;19913;-59
2023/03/04 10:12:24;;;;;;;7.05;2.50;;;;;;;8.09;61.69;102513.44;5031467;28;20071;-59
2023/03/04 10:15:29;;;;;;;5.63;2.15;;;;;;;8.14;62.44;102521.19;5029210;28;20036;-59
2023/03/04 10:18:16;;;;;;;6.10;2.97;;;;;;;8.09;61.54;102519.84;5031507;28;20045;-59
2023/03/04 10:21:16;;;;;;;5.90;2.50;;;;;;;8.16;62.51;102510.78;5032363;28;20040;-59
2023/03/04 10:23:42;;;;;;;5.55;2.30;;;;;;;8.22;62.33;102513.63;5031180;28;20026;-60
2023/03/04 10:26:12;;;;;;;7.18;2.13;;;;;;;8.29;61.62;102503.47;5032337;28;20029;-59
2023/03/04 10:28:38;;;;;;;4.65;2.08;;;;;;;8.39;61.29;102508.69;5031190;28;20475;-59
2023/03/04 10:31:36;;;;;;;5.38;2.15;;;;;;;8.53;61.23;102501.38;5031274;28;20065;-59
2023/03/04 10:34:05;;;;;;;6.00;2.20;;;;;;;8.56;60.79;102496.28;5027777;28;20496;-59
2023/03/04 10:36:31;;;;;;;4.22;2.00;;;;;;;8.56;60.41;102498.19;5029708;28;20040;-59
2023/03/04 10:39:04;;;;;;;6.05;2.20;;;;;;;8.58;60.36;102490.56;5028916;28;20736;-59
2023/03/04 10:41:30;;;;;;;4.68;2.10;;;;;;;8.74;60.84;102489.41;5022697;28;20143;-60
2023/03/04 10:43:58;;;;;;;9.15;2.33;;;;;;;8.71;59.49;102495.34;5025394;28;20489;-58
2023/03/04 10:46:25;;;;;;;8.57;2.03;;;;;;;8.73;61.01;102488.56;5013933;28;20091;-60
2023/03/04 10:48:51;;;;;;;6.85;2.08;;;;;;;8.66;61.13;102487.66;5015169;28;20113;-59
2023/03/04 10:51:27;;;;;;;5.53;2.17;;;;;;;8.61;60.85;102495.72;5021580;28;20025;-59
2023/03/04 10:54:00;;;;;;;5.93;2.20;;;;;;;8.53;60.85;102493.09;5032861;28;20505;-59
2023/03/04 10:56:33;;;;;;;;;;;;;;;8.64;60.90;102494.44;5027993;28;20385;-59
2023/03/04 10:59:27;;;;;;;5.93;2.63;;;;;;;8.47;60.60;102491.97;5026972;28;19917;-62
2023/03/04 11:01:53;;;;;;;5.32;3.33;;;;;;;8.40;60.67;102487.41;5023426;28;20087;-61
2023/03/04 11:04:21;;;;;;;9.00;3.50;;;;;;;8.38;61.31;102495.94;5021082;28;20037;-61
2023/03/04 11:06:47;;;;;;;5.43;2.50;;;;;;;8.29;61.05;102491.53;5028226;28;20040;-61
2023/03/04 11:09:30;;;;;;;4.50;2.20;;;;;;;8.32;61.82;102485.59;5027067;28;20033;-60
2023/03/04 11:11:59;;;;;;;9.45;2.25;;;;;;;8.30;61.90;102483.06;5022205;28;20037;-60
2023/03/04 11:14:45;;;;;;;11.18;2.65;;;;;;;8.30;60.93;102476.66;5030091;28;20033;-60
2023/03/04 11:17:24;;;;;;;6.40;1.90;;;;;;;8.25;62.08;102476.38;5015893;28;20492;-60
2023/03/04 11:20:25;;;;;;;6.70;2.40;;;;;;;8.19;62.34;102478.03;5013608;28;20038;-61
2023/03/04 11:22:52;;;;;;;6.28;2.05;;;;;;;8.18;62.33;102468.03;5015887;28;20029;-60
2023/03/04 11:25:25;;;;;;;5.57;2.97;;;;;;;8.20;63.71;102471.44;5024523;28;20072;-61
2023/03/04 11:27:56;;;;;;;4.05;3.63;;;;;;;8.22;63.27;102469.34;5014137;28;20030;-60
2023/03/04 11:30:41;;;;;;;4.72;3.30;;;;;;;8.25;63.54;102473.63;5012130;28;20053;-60